sensor_id;sensor_type;location;lat;lon;timestamp;P1;durP1;ratioP1;P2;durP2;ratioP2
12554;SDS011;6343;50.868;4.700;2023-12-22T00:00:15;13.03;;;2.47;;
12554;SDS011;6343;50.868;4.700;2023-12-22T00:02:41;18.27;;;3.50;;
12554;SDS011;6343;50.868;4.700;2023-12-22T00:05:07;16.60;;;3.03;;
12554;SDS011;6343;50.868;4.700;2023-12-22T00:07:33;13.33;;;2.97;;
12554;SDS011;6343;50.868;4.700;2023-12-22T00:09:59;12.33;;;3.30;;
12554;SDS011;6343;50.868;4.700;2023-12-22T00:12:25;12.67;;;2.37;;
12554;SDS011;6343;50.868;4.700;2023-12-22T00:14:52;10.50;;;2.80;;
12554;SDS011;6343;50.868;4.700;2023-12-22T00:17:18;15.57;;;3.00;;
12554;SDS011;6343;50.868;4.700;2023-12-22T00:19:44;9.73;;;2.97;;
12554;SDS011;6343;50.868;4.700;2023-12-22T00:22:10;13.50;;;3.27;;
12554;SDS011;6343;50.868;4.700;2023-12-22T00:24:36;15.60;;;2.93;;
12554;SDS011;6343;50.868;4.700;2023-12-22T00:27:02;12.87;;;2.70;;
12554;SDS011;6343;50.868;4.700;2023-12-22T00:29:28;12.30;;;2.47;;
12554;SDS011;6343;50.868;4.700;2023-12-22T00:31:54;9.40;;;3.03;;
12554;SDS011;6343;50.868;4.700;2023-12-22T00:34:24;12.53;;;2.90;;
12554;SDS011;6343;50.868;4.700;2023-12-22T00:36:50;13.57;;;2.93;;
12554;SDS011;6343;50.868;4.700;2023-12-22T00:39:16;10.27;;;2.80;;
12554;SDS011;6343;50.868;4.700;2023-12-22T00:41:42;10.70;;;2.77;;
12554;SDS011;6343;50.868;4.700;2023-12-22T00:44:08;7.63;;;2.30;;
12554;SDS011;6343;50.868;4.700;2023-12-22T00:46:34;9.20;;;2.77;;
12554;SDS011;6343;50.868;4.700;2023-12-22T00:49:00;6.53;;;1.97;;
12554;SDS011;6343;50.868;4.700;2023-12-22T00:51:26;10.37;;;2.80;;
12554;SDS011;6343;50.868;4.700;2023-12-22T00:53:52;11.20;;;2.43;;
12554;SDS011;6343;50.868;4.700;2023-12-22T00:56:18;10.60;;;2.20;;
12554;SDS011;6343;50.868;4.700;2023-12-22T00:58:44;13.57;;;2.70;;
12554;SDS011;6343;50.868;4.700;2023-12-22T01:01:10;8.03;;;2.10;;
12554;SDS011;6343;50.868;4.700;2023-12-22T01:03:36;6.27;;;1.83;;
12554;SDS011;6343;50.868;4.700;2023-12-22T01:06:03;14.10;;;3.33;;
12554;SDS011;6343;50.868;4.700;2023-12-22T01:08:29;14.10;;;3.10;;
12554;SDS011;6343;50.868;4.700;2023-12-22T01:10:55;16.03;;;3.13;;
12554;SDS011;6343;50.868;4.700;2023-12-22T01:13:21;15.97;;;2.77;;
12554;SDS011;6343;50.868;4.700;2023-12-22T01:15:47;15.80;;;3.10;;
12554;SDS011;6343;50.868;4.700;2023-12-22T01:18:13;17.03;;;4.07;;
12554;SDS011;6343;50.868;4.700;2023-12-22T01:20:39;15.83;;;3.77;;
12554;SDS011;6343;50.868;4.700;2023-12-22T01:23:05;15.77;;;3.60;;
12554;SDS011;6343;50.868;4.700;2023-12-22T01:25:31;19.93;;;3.13;;
12554;SDS011;6343;50.868;4.700;2023-12-22T01:27:57;10.30;;;2.90;;
12554;SDS011;6343;50.868;4.700;2023-12-22T01:30:24;10.87;;;3.07;;
12554;SDS011;6343;50.868;4.700;2023-12-22T01:32:50;9.60;;;2.90;;
12554;SDS011;6343;50.868;4.700;2023-12-22T01:35:16;17.57;;;2.97;;
12554;SDS011;6343;50.868;4.700;2023-12-22T01:37:42;13.87;;;3.53;;
12554;SDS011;6343;50.868;4.700;2023-12-22T01:40:08;14.40;;;3.37;;
12554;SDS011;6343;50.868;4.700;2023-12-22T01:42:34;11.93;;;3.47;;
12554;SDS011;6343;50.868;4.700;2023-12-22T01:45:00;16.83;;;3.63;;
12554;SDS011;6343;50.868;4.700;2023-12-22T01:47:26;16.90;;;2.60;;
12554;SDS011;6343;50.868;4.700;2023-12-22T01:49:53;10.30;;;2.57;;
12554;SDS011;6343;50.868;4.700;2023-12-22T01:52:19;14.20;;;3.73;;
12554;SDS011;6343;50.868;4.700;2023-12-22T01:54:45;15.53;;;3.20;;
12554;SDS011;6343;50.868;4.700;2023-12-22T01:57:12;17.37;;;3.93;;
12554;SDS011;6343;50.868;4.700;2023-12-22T01:59:40;14.77;;;3.30;;
12554;SDS011;6343;50.868;4.700;2023-12-22T02:02:06;13.23;;;2.97;;
12554;SDS011;6343;50.868;4.700;2023-12-22T02:04:32;14.20;;;3.40;;
12554;SDS011;6343;50.868;4.700;2023-12-22T02:06:59;22.27;;;3.40;;
12554;SDS011;6343;50.868;4.700;2023-12-22T02:09:26;10.43;;;3.10;;
12554;SDS011;6343;50.868;4.700;2023-12-22T02:11:52;21.70;;;3.43;;
12554;SDS011;6343;50.868;4.700;2023-12-22T02:14:18;14.83;;;3.10;;
12554;SDS011;6343;50.868;4.700;2023-12-22T02:16:46;17.47;;;3.83;;
12554;SDS011;6343;50.868;4.700;2023-12-22T02:19:39;12.97;;;3.00;;
12554;SDS011;6343;50.868;4.700;2023-12-22T02:22:07;11.83;;;2.90;;
12554;SDS011;6343;50.868;4.700;2023-12-22T02:24:34;15.60;;;3.90;;
12554;SDS011;6343;50.868;4.700;2023-12-22T02:27:04;17.93;;;3.47;;
12554;SDS011;6343;50.868;4.700;2023-12-22T02:29:35;19.03;;;3.90;;
12554;SDS011;6343;50.868;4.700;2023-12-22T02:32:02;11.13;;;3.03;;
12554;SDS011;6343;50.868;4.700;2023-12-22T02:34:32;11.87;;;3.70;;
12554;SDS011;6343;50.868;4.700;2023-12-22T02:37:01;13.27;;;3.40;;
12554;SDS011;6343;50.868;4.700;2023-12-22T02:39:28;18.97;;;3.53;;
12554;SDS011;6343;50.868;4.700;2023-12-22T02:41:54;16.03;;;3.40;;
12554;SDS011;6343;50.868;4.700;2023-12-22T02:44:21;15.70;;;3.60;;
12554;SDS011;6343;50.868;4.700;2023-12-22T02:46:47;11.93;;;3.17;;
12554;SDS011;6343;50.868;4.700;2023-12-22T02:49:14;11.97;;;3.53;;
12554;SDS011;6343;50.868;4.700;2023-12-22T02:51:40;16.47;;;2.60;;
12554;SDS011;6343;50.868;4.700;2023-12-22T02:54:06;15.70;;;3.03;;
12554;SDS011;6343;50.868;4.700;2023-12-22T02:56:32;15.03;;;3.00;;
12554;SDS011;6343;50.868;4.700;2023-12-22T02:58:58;15.20;;;3.13;;
12554;SDS011;6343;50.868;4.700;2023-12-22T03:01:24;15.87;;;3.30;;
12554;SDS011;6343;50.868;4.700;2023-12-22T03:03:50;10.47;;;2.30;;
12554;SDS011;6343;50.868;4.700;2023-12-22T03:06:16;14.50;;;3.33;;
12554;SDS011;6343;50.868;4.700;2023-12-22T03:08:42;8.60;;;2.77;;
12554;SDS011;6343;50.868;4.700;2023-12-22T03:11:08;14.63;;;3.17;;
12554;SDS011;6343;50.868;4.700;2023-12-22T03:13:34;12.23;;;2.60;;
12554;SDS011;6343;50.868;4.700;2023-12-22T03:16:01;7.10;;;1.93;;
12554;SDS011;6343;50.868;4.700;2023-12-22T03:18:27;9.83;;;2.23;;
12554;SDS011;6343;50.868;4.700;2023-12-22T03:20:53;6.13;;;1.60;;
12554;SDS011;6343;50.868;4.700;2023-12-22T03:23:19;9.10;;;2.30;;
12554;SDS011;6343;50.868;4.700;2023-12-22T03:25:45;7.67;;;2.10;;
12554;SDS011;6343;50.868;4.700;2023-12-22T03:28:11;3.90;;;1.70;;
12554;SDS011;6343;50.868;4.700;2023-12-22T03:30:37;11.83;;;2.37;;
12554;SDS011;6343;50.868;4.700;2023-12-22T03:33:03;8.57;;;2.47;;
12554;SDS011;6343;50.868;4.700;2023-12-22T03:35:31;10.47;;;2.13;;
12554;SDS011;6343;50.868;4.700;2023-12-22T03:37:57;7.53;;;2.10;;
12554;SDS011;6343;50.868;4.700;2023-12-22T03:40:23;11.93;;;2.20;;
12554;SDS011;6343;50.868;4.700;2023-12-22T03:42:49;14.23;;;2.70;;
12554;SDS011;6343;50.868;4.700;2023-12-22T03:45:15;12.07;;;2.30;;
12554;SDS011;6343;50.868;4.700;2023-12-22T03:47:41;15.77;;;2.07;;
12554;SDS011;6343;50.868;4.700;2023-12-22T03:50:07;15.13;;;2.77;;
12554;SDS011;6343;50.868;4.700;2023-12-22T03:52:34;9.50;;;2.43;;
12554;SDS011;6343;50.868;4.700;2023-12-22T03:55:00;16.33;;;2.93;;
12554;SDS011;6343;50.868;4.700;2023-12-22T03:57:28;12.20;;;3.00;;
12554;SDS011;6343;50.868;4.700;2023-12-22T03:59:54;18.13;;;3.60;;
12554;SDS011;6343;50.868;4.700;2023-12-22T04:02:20;11.70;;;3.00;;
12554;SDS011;6343;50.868;4.700;2023-12-22T04:04:47;12.07;;;2.67;;
12554;SDS011;6343;50.868;4.700;2023-12-22T04:07:13;15.40;;;3.87;;
12554;SDS011;6343;50.868;4.700;2023-12-22T04:09:39;13.63;;;2.77;;
12554;SDS011;6343;50.868;4.700;2023-12-22T04:12:05;10.33;;;3.00;;
12554;SDS011;6343;50.868;4.700;2023-12-22T04:14:31;10.03;;;3.10;;
12554;SDS011;6343;50.868;4.700;2023-12-22T04:16:57;17.50;;;2.70;;
12554;SDS011;6343;50.868;4.700;2023-12-22T04:19:23;13.20;;;3.30;;
12554;SDS011;6343;50.868;4.700;2023-12-22T04:21:49;14.33;;;3.00;;
12554;SDS011;6343;50.868;4.700;2023-12-22T04:24:16;16.87;;;3.40;;
12554;SDS011;6343;50.868;4.700;2023-12-22T04:26:42;13.50;;;2.53;;
12554;SDS011;6343;50.868;4.700;2023-12-22T04:29:08;9.90;;;2.47;;
12554;SDS011;6343;50.868;4.700;2023-12-22T04:31:34;16.03;;;3.63;;
12554;SDS011;6343;50.868;4.700;2023-12-22T04:34:00;14.00;;;3.63;;
12554;SDS011;6343;50.868;4.700;2023-12-22T04:36:26;12.03;;;3.03;;
12554;SDS011;6343;50.868;4.700;2023-12-22T04:38:52;11.07;;;2.90;;
12554;SDS011;6343;50.868;4.700;2023-12-22T04:41:18;17.17;;;3.53;;
12554;SDS011;6343;50.868;4.700;2023-12-22T04:43:44;16.33;;;3.63;;
12554;SDS011;6343;50.868;4.700;2023-12-22T04:46:10;16.20;;;3.77;;
12554;SDS011;6343;50.868;4.700;2023-12-22T04:48:36;18.87;;;3.70;;
12554;SDS011;6343;50.868;4.700;2023-12-22T04:51:02;20.27;;;3.63;;
12554;SDS011;6343;50.868;4.700;2023-12-22T04:53:28;14.13;;;4.00;;
12554;SDS011;6343;50.868;4.700;2023-12-22T04:55:54;13.90;;;3.83;;
12554;SDS011;6343;50.868;4.700;2023-12-22T04:58:20;17.63;;;3.80;;
12554;SDS011;6343;50.868;4.700;2023-12-22T05:00:47;15.57;;;4.27;;
12554;SDS011;6343;50.868;4.700;2023-12-22T05:03:13;17.40;;;3.63;;
12554;SDS011;6343;50.868;4.700;2023-12-22T05:05:39;18.23;;;3.37;;
12554;SDS011;6343;50.868;4.700;2023-12-22T05:08:06;16.20;;;3.30;;
12554;SDS011;6343;50.868;4.700;2023-12-22T05:10:32;11.57;;;3.23;;
12554;SDS011;6343;50.868;4.700;2023-12-22T05:12:58;17.47;;;3.33;;
12554;SDS011;6343;50.868;4.700;2023-12-22T05:15:24;15.73;;;3.47;;
12554;SDS011;6343;50.868;4.700;2023-12-22T05:17:51;24.60;;;4.80;;
12554;SDS011;6343;50.868;4.700;2023-12-22T05:20:17;20.33;;;4.47;;
12554;SDS011;6343;50.868;4.700;2023-12-22T05:22:43;19.60;;;4.00;;
12554;SDS011;6343;50.868;4.700;2023-12-22T05:25:09;19.07;;;4.57;;
12554;SDS011;6343;50.868;4.700;2023-12-22T05:27:36;16.57;;;3.90;;
12554;SDS011;6343;50.868;4.700;2023-12-22T05:30:02;15.17;;;3.47;;
12554;SDS011;6343;50.868;4.700;2023-12-22T05:32:29;30.13;;;5.07;;
12554;SDS011;6343;50.868;4.700;2023-12-22T05:34:55;17.33;;;3.97;;
12554;SDS011;6343;50.868;4.700;2023-12-22T05:37:21;22.57;;;4.20;;
12554;SDS011;6343;50.868;4.700;2023-12-22T05:39:47;27.83;;;5.30;;
12554;SDS011;6343;50.868;4.700;2023-12-22T05:42:13;21.93;;;4.60;;
12554;SDS011;6343;50.868;4.700;2023-12-22T05:44:39;19.43;;;4.27;;
12554;SDS011;6343;50.868;4.700;2023-12-22T05:47:05;17.27;;;4.23;;
12554;SDS011;6343;50.868;4.700;2023-12-22T05:49:32;20.10;;;4.50;;
12554;SDS011;6343;50.868;4.700;2023-12-22T05:51:58;16.97;;;4.40;;
12554;SDS011;6343;50.868;4.700;2023-12-22T05:54:24;21.60;;;4.77;;
12554;SDS011;6343;50.868;4.700;2023-12-22T05:56:50;24.47;;;4.67;;
12554;SDS011;6343;50.868;4.700;2023-12-22T05:59:17;22.03;;;4.30;;
12554;SDS011;6343;50.868;4.700;2023-12-22T06:01:43;18.63;;;4.37;;
12554;SDS011;6343;50.868;4.700;2023-12-22T06:04:10;23.97;;;3.73;;
12554;SDS011;6343;50.868;4.700;2023-12-22T06:06:36;21.87;;;4.80;;
12554;SDS011;6343;50.868;4.700;2023-12-22T06:09:03;26.23;;;5.13;;
12554;SDS011;6343;50.868;4.700;2023-12-22T06:11:29;24.23;;;4.60;;
12554;SDS011;6343;50.868;4.700;2023-12-22T06:13:55;23.90;;;4.97;;
12554;SDS011;6343;50.868;4.700;2023-12-22T06:16:22;23.63;;;4.83;;
12554;SDS011;6343;50.868;4.700;2023-12-22T06:18:48;21.13;;;4.80;;
12554;SDS011;6343;50.868;4.700;2023-12-22T06:21:14;19.47;;;3.90;;
12554;SDS011;6343;50.868;4.700;2023-12-22T06:23:40;23.83;;;5.07;;
12554;SDS011;6343;50.868;4.700;2023-12-22T06:26:10;25.20;;;5.67;;
12554;SDS011;6343;50.868;4.700;2023-12-22T06:28:36;19.23;;;4.47;;
12554;SDS011;6343;50.868;4.700;2023-12-22T06:31:04;20.30;;;4.00;;
12554;SDS011;6343;50.868;4.700;2023-12-22T06:33:30;17.87;;;4.30;;
12554;SDS011;6343;50.868;4.700;2023-12-22T06:35:56;26.07;;;5.93;;
12554;SDS011;6343;50.868;4.700;2023-12-22T06:38:23;17.47;;;3.20;;
12554;SDS011;6343;50.868;4.700;2023-12-22T06:40:49;15.70;;;3.90;;
12554;SDS011;6343;50.868;4.700;2023-12-22T06:43:15;23.13;;;3.43;;
12554;SDS011;6343;50.868;4.700;2023-12-22T06:45:41;13.47;;;4.00;;
12554;SDS011;6343;50.868;4.700;2023-12-22T06:48:07;14.70;;;3.70;;
12554;SDS011;6343;50.868;4.700;2023-12-22T06:50:34;17.93;;;4.70;;
12554;SDS011;6343;50.868;4.700;2023-12-22T06:53:02;16.30;;;4.27;;
12554;SDS011;6343;50.868;4.700;2023-12-22T06:55:29;16.40;;;3.97;;
12554;SDS011;6343;50.868;4.700;2023-12-22T06:57:55;21.37;;;3.77;;
12554;SDS011;6343;50.868;4.700;2023-12-22T07:00:21;25.80;;;3.63;;
12554;SDS011;6343;50.868;4.700;2023-12-22T07:02:47;20.07;;;3.40;;
12554;SDS011;6343;50.868;4.700;2023-12-22T07:07:50;17.90;;;3.63;;
12554;SDS011;6343;50.868;4.700;2023-12-22T07:10:16;16.20;;;3.67;;
12554;SDS011;6343;50.868;4.700;2023-12-22T07:12:42;17.30;;;3.77;;
12554;SDS011;6343;50.868;4.700;2023-12-22T07:15:08;11.40;;;2.70;;
12554;SDS011;6343;50.868;4.700;2023-12-22T07:17:36;11.63;;;2.60;;
12554;SDS011;6343;50.868;4.700;2023-12-22T07:20:02;10.10;;;2.47;;
12554;SDS011;6343;50.868;4.700;2023-12-22T07:22:28;17.03;;;2.87;;
12554;SDS011;6343;50.868;4.700;2023-12-22T07:24:54;8.97;;;2.83;;
12554;SDS011;6343;50.868;4.700;2023-12-22T07:27:20;14.83;;;2.40;;
12554;SDS011;6343;50.868;4.700;2023-12-22T07:29:46;14.47;;;3.87;;
12554;SDS011;6343;50.868;4.700;2023-12-22T07:32:13;12.63;;;2.70;;
12554;SDS011;6343;50.868;4.700;2023-12-22T07:34:39;12.77;;;3.13;;
12554;SDS011;6343;50.868;4.700;2023-12-22T07:37:05;10.90;;;2.80;;
12554;SDS011;6343;50.868;4.700;2023-12-22T07:39:31;12.67;;;3.00;;
12554;SDS011;6343;50.868;4.700;2023-12-22T07:41:57;12.30;;;2.97;;
12554;SDS011;6343;50.868;4.700;2023-12-22T07:44:23;10.80;;;2.60;;
12554;SDS011;6343;50.868;4.700;2023-12-22T07:46:58;8.87;;;2.10;;
12554;SDS011;6343;50.868;4.700;2023-12-22T07:49:25;8.43;;;2.03;;
12554;SDS011;6343;50.868;4.700;2023-12-22T07:51:52;8.77;;;2.33;;
12554;SDS011;6343;50.868;4.700;2023-12-22T07:54:18;10.63;;;2.17;;
12554;SDS011;6343;50.868;4.700;2023-12-22T07:56:44;7.30;;;1.90;;
12554;SDS011;6343;50.868;4.700;2023-12-22T07:59:11;8.73;;;2.27;;
12554;SDS011;6343;50.868;4.700;2023-12-22T08:01:37;7.67;;;2.20;;
12554;SDS011;6343;50.868;4.700;2023-12-22T08:04:03;14.30;;;2.30;;
12554;SDS011;6343;50.868;4.700;2023-12-22T08:06:29;8.20;;;1.80;;
12554;SDS011;6343;50.868;4.700;2023-12-22T08:08:55;5.63;;;1.80;;
12554;SDS011;6343;50.868;4.700;2023-12-22T08:11:21;3.60;;;1.67;;
12554;SDS011;6343;50.868;4.700;2023-12-22T08:13:50;6.33;;;1.83;;
12554;SDS011;6343;50.868;4.700;2023-12-22T08:16:16;10.03;;;2.00;;
12554;SDS011;6343;50.868;4.700;2023-12-22T08:18:42;7.67;;;1.90;;
12554;SDS011;6343;50.868;4.700;2023-12-22T08:21:08;6.63;;;1.90;;
12554;SDS011;6343;50.868;4.700;2023-12-22T08:23:34;10.17;;;1.63;;
12554;SDS011;6343;50.868;4.700;2023-12-22T08:26:00;8.77;;;1.97;;
12554;SDS011;6343;50.868;4.700;2023-12-22T08:28:26;6.93;;;2.13;;
12554;SDS011;6343;50.868;4.700;2023-12-22T08:30:52;4.83;;;1.60;;
12554;SDS011;6343;50.868;4.700;2023-12-22T08:33:18;5.57;;;1.77;;
12554;SDS011;6343;50.868;4.700;2023-12-22T08:35:44;6.40;;;1.70;;
12554;SDS011;6343;50.868;4.700;2023-12-22T08:38:10;4.90;;;1.47;;
12554;SDS011;6343;50.868;4.700;2023-12-22T08:40:38;4.60;;;1.77;;
12554;SDS011;6343;50.868;4.700;2023-12-22T08:43:04;4.07;;;1.63;;
12554;SDS011;6343;50.868;4.700;2023-12-22T08:45:31;5.63;;;1.70;;
12554;SDS011;6343;50.868;4.700;2023-12-22T08:47:57;7.50;;;1.57;;
12554;SDS011;6343;50.868;4.700;2023-12-22T08:50:25;2.77;;;1.77;;
12554;SDS011;6343;50.868;4.700;2023-12-22T08:52:51;4.90;;;1.70;;
12554;SDS011;6343;50.868;4.700;2023-12-22T08:55:17;7.40;;;5.37;;
12554;SDS011;6343;50.868;4.700;2023-12-22T08:57:44;6.53;;;1.57;;
12554;SDS011;6343;50.868;4.700;2023-12-22T09:00:10;5.07;;;2.20;;
12554;SDS011;6343;50.868;4.700;2023-12-22T09:02:36;3.40;;;1.70;;
12554;SDS011;6343;50.868;4.700;2023-12-22T09:05:02;5.37;;;2.13;;
12554;SDS011;6343;50.868;4.700;2023-12-22T09:07:28;3.60;;;1.80;;
12554;SDS011;6343;50.868;4.700;2023-12-22T09:09:54;4.50;;;1.80;;
12554;SDS011;6343;50.868;4.700;2023-12-22T09:12:20;2.60;;;1.80;;
12554;SDS011;6343;50.868;4.700;2023-12-22T09:14:46;6.83;;;2.53;;
12554;SDS011;6343;50.868;4.700;2023-12-22T09:17:13;4.50;;;2.30;;
12554;SDS011;6343;50.868;4.700;2023-12-22T09:19:39;4.97;;;2.23;;
12554;SDS011;6343;50.868;4.700;2023-12-22T09:22:05;6.20;;;2.43;;
12554;SDS011;6343;50.868;4.700;2023-12-22T09:24:31;5.13;;;2.43;;
12554;SDS011;6343;50.868;4.700;2023-12-22T09:26:57;8.83;;;2.23;;
12554;SDS011;6343;50.868;4.700;2023-12-22T09:29:31;5.40;;;2.50;;
12554;SDS011;6343;50.868;4.700;2023-12-22T09:31:58;6.93;;;2.30;;
12554;SDS011;6343;50.868;4.700;2023-12-22T09:34:28;5.67;;;2.30;;
12554;SDS011;6343;50.868;4.700;2023-12-22T09:36:54;10.93;;;3.07;;
12554;SDS011;6343;50.868;4.700;2023-12-22T09:39:20;10.07;;;2.63;;
12554;SDS011;6343;50.868;4.700;2023-12-22T09:41:47;5.07;;;2.50;;
12554;SDS011;6343;50.868;4.700;2023-12-22T09:44:15;6.93;;;2.47;;
12554;SDS011;6343;50.868;4.700;2023-12-22T09:46:43;7.00;;;2.13;;
12554;SDS011;6343;50.868;4.700;2023-12-22T09:49:09;4.83;;;2.07;;
12554;SDS011;6343;50.868;4.700;2023-12-22T09:51:36;8.97;;;2.20;;
12554;SDS011;6343;50.868;4.700;2023-12-22T09:54:02;2.90;;;1.77;;
12554;SDS011;6343;50.868;4.700;2023-12-22T09:56:29;6.23;;;1.90;;
12554;SDS011;6343;50.868;4.700;2023-12-22T09:58:56;7.00;;;1.80;;
12554;SDS011;6343;50.868;4.700;2023-12-22T10:01:22;3.73;;;1.60;;
12554;SDS011;6343;50.868;4.700;2023-12-22T10:03:48;6.67;;;2.30;;
12554;SDS011;6343;50.868;4.700;2023-12-22T10:06:14;2.97;;;1.90;;
12554;SDS011;6343;50.868;4.700;2023-12-22T10:08:42;6.67;;;1.47;;
12554;SDS011;6343;50.868;4.700;2023-12-22T10:11:08;2.10;;;1.23;;
12554;SDS011;6343;50.868;4.700;2023-12-22T10:13:36;4.57;;;1.83;;
12554;SDS011;6343;50.868;4.700;2023-12-22T10:16:02;6.07;;;1.50;;
12554;SDS011;6343;50.868;4.700;2023-12-22T10:18:29;6.17;;;1.40;;
12554;SDS011;6343;50.868;4.700;2023-12-22T10:20:56;3.00;;;1.00;;
12554;SDS011;6343;50.868;4.700;2023-12-22T10:23:22;2.43;;;1.13;;
12554;SDS011;6343;50.868;4.700;2023-12-22T10:25:48;4.17;;;1.20;;
12554;SDS011;6343;50.868;4.700;2023-12-22T10:28:16;2.13;;;1.00;;
12554;SDS011;6343;50.868;4.700;2023-12-22T10:30:44;4.17;;;1.07;;
12554;SDS011;6343;50.868;4.700;2023-12-22T10:33:11;3.30;;;1.33;;
12554;SDS011;6343;50.868;4.700;2023-12-22T10:35:37;5.77;;;1.17;;
12554;SDS011;6343;50.868;4.700;2023-12-22T10:38:03;1.77;;;1.13;;
12554;SDS011;6343;50.868;4.700;2023-12-22T10:40:29;6.83;;;1.17;;
12554;SDS011;6343;50.868;4.700;2023-12-22T10:42:56;3.00;;;1.10;;
12554;SDS011;6343;50.868;4.700;2023-12-22T10:45:22;4.20;;;1.77;;
12554;SDS011;6343;50.868;4.700;2023-12-22T10:47:48;3.57;;;1.10;;
12554;SDS011;6343;50.868;4.700;2023-12-22T10:50:21;3.90;;;1.17;;
12554;SDS011;6343;50.868;4.700;2023-12-22T10:52:50;4.30;;;1.50;;
12554;SDS011;6343;50.868;4.700;2023-12-22T10:55:16;4.67;;;1.10;;
12554;SDS011;6343;50.868;4.700;2023-12-22T10:57:44;5.03;;;1.50;;
12554;SDS011;6343;50.868;4.700;2023-12-22T11:00:10;3.10;;;1.03;;
12554;SDS011;6343;50.868;4.700;2023-12-22T11:02:37;4.43;;;1.43;;
12554;SDS011;6343;50.868;4.700;2023-12-22T11:05:07;2.00;;;1.10;;
12554;SDS011;6343;50.868;4.700;2023-12-22T11:07:35;3.47;;;1.27;;
12554;SDS011;6343;50.868;4.700;2023-12-22T11:10:06;5.60;;;1.50;;
12554;SDS011;6343;50.868;4.700;2023-12-22T11:12:36;2.63;;;1.50;;
12554;SDS011;6343;50.868;4.700;2023-12-22T11:15:02;3.40;;;1.40;;
12554;SDS011;6343;50.868;4.700;2023-12-22T11:17:32;5.43;;;1.47;;
12554;SDS011;6343;50.868;4.700;2023-12-22T11:20:00;4.60;;;1.20;;
12554;SDS011;6343;50.868;4.700;2023-12-22T11:22:27;2.77;;;1.20;;
12554;SDS011;6343;50.868;4.700;2023-12-22T11:24:55;4.87;;;1.37;;
12554;SDS011;6343;50.868;4.700;2023-12-22T11:27:22;2.73;;;1.70;;
12554;SDS011;6343;50.868;4.700;2023-12-22T11:29:49;2.13;;;1.13;;
12554;SDS011;6343;50.868;4.700;2023-12-22T11:32:16;3.73;;;1.33;;
12554;SDS011;6343;50.868;4.700;2023-12-22T11:34:43;4.00;;;1.40;;
12554;SDS011;6343;50.868;4.700;2023-12-22T11:37:11;2.10;;;1.40;;
12554;SDS011;6343;50.868;4.700;2023-12-22T11:39:38;4.43;;;1.10;;
12554;SDS011;6343;50.868;4.700;2023-12-22T11:42:05;5.40;;;1.20;;
12554;SDS011;6343;50.868;4.700;2023-12-22T11:44:32;4.00;;;0.90;;
12554;SDS011;6343;50.868;4.700;2023-12-22T11:47:05;3.27;;;1.30;;
12554;SDS011;6343;50.868;4.700;2023-12-22T11:49:32;5.27;;;1.20;;
12554;SDS011;6343;50.868;4.700;2023-12-22T11:52:14;3.87;;;1.20;;
12554;SDS011;6343;50.868;4.700;2023-12-22T11:54:47;3.10;;;1.20;;
12554;SDS011;6343;50.868;4.700;2023-12-22T11:59:56;5.30;;;1.30;;
12554;SDS011;6343;50.868;4.700;2023-12-22T12:02:23;3.43;;;1.00;;
12554;SDS011;6343;50.868;4.700;2023-12-22T12:04:52;4.93;;;1.27;;
12554;SDS011;6343;50.868;4.700;2023-12-22T12:15:32;2.20;;;0.90;;
12554;SDS011;6343;50.868;4.700;2023-12-22T12:17:58;2.70;;;0.90;;
12554;SDS011;6343;50.868;4.700;2023-12-22T12:20:25;4.17;;;1.10;;
12554;SDS011;6343;50.868;4.700;2023-12-22T12:22:52;1.37;;;0.70;;
12554;SDS011;6343;50.868;4.700;2023-12-22T12:25:18;4.17;;;1.17;;
12554;SDS011;6343;50.868;4.700;2023-12-22T12:27:49;2.43;;;0.90;;
12554;SDS011;6343;50.868;4.700;2023-12-22T12:30:16;5.97;;;1.00;;
12554;SDS011;6343;50.868;4.700;2023-12-22T12:32:42;3.17;;;1.00;;
12554;SDS011;6343;50.868;4.700;2023-12-22T12:35:12;4.27;;;1.10;;
12554;SDS011;6343;50.868;4.700;2023-12-22T12:37:38;2.47;;;0.87;;
12554;SDS011;6343;50.868;4.700;2023-12-22T12:40:05;4.33;;;0.90;;
12554;SDS011;6343;50.868;4.700;2023-12-22T12:42:33;1.57;;;0.83;;
12554;SDS011;6343;50.868;4.700;2023-12-22T12:45:03;8.37;;;1.30;;
12554;SDS011;6343;50.868;4.700;2023-12-22T12:47:29;2.23;;;0.73;;
12554;SDS011;6343;50.868;4.700;2023-12-22T12:50:01;6.27;;;1.00;;
12554;SDS011;6343;50.868;4.700;2023-12-22T12:52:28;3.27;;;1.23;;
12554;SDS011;6343;50.868;4.700;2023-12-22T12:54:54;5.47;;;1.30;;
12554;SDS011;6343;50.868;4.700;2023-12-22T12:57:21;3.63;;;1.03;;
12554;SDS011;6343;50.868;4.700;2023-12-22T12:59:47;2.83;;;1.00;;
12554;SDS011;6343;50.868;4.700;2023-12-22T13:02:17;3.47;;;0.97;;
12554;SDS011;6343;50.868;4.700;2023-12-22T13:04:44;3.33;;;1.30;;
12554;SDS011;6343;50.868;4.700;2023-12-22T13:07:10;1.97;;;1.00;;
12554;SDS011;6343;50.868;4.700;2023-12-22T13:09:39;4.60;;;1.20;;
12554;SDS011;6343;50.868;4.700;2023-12-22T13:12:07;3.33;;;1.10;;
12554;SDS011;6343;50.868;4.700;2023-12-22T13:14:34;3.87;;;0.90;;
12554;SDS011;6343;50.868;4.700;2023-12-22T13:17:00;4.50;;;1.27;;
12554;SDS011;6343;50.868;4.700;2023-12-22T13:19:27;3.23;;;1.00;;
12554;SDS011;6343;50.868;4.700;2023-12-22T13:21:53;6.30;;;1.20;;
12554;SDS011;6343;50.868;4.700;2023-12-22T13:24:19;3.50;;;1.07;;
12554;SDS011;6343;50.868;4.700;2023-12-22T13:26:46;13.67;;;1.33;;
12554;SDS011;6343;50.868;4.700;2023-12-22T13:29:12;4.93;;;1.20;;
12554;SDS011;6343;50.868;4.700;2023-12-22T13:31:40;3.13;;;0.77;;
12554;SDS011;6343;50.868;4.700;2023-12-22T13:34:11;4.17;;;0.97;;
12554;SDS011;6343;50.868;4.700;2023-12-22T13:36:37;4.17;;;0.90;;
12554;SDS011;6343;50.868;4.700;2023-12-22T13:39:04;2.33;;;0.87;;
12554;SDS011;6343;50.868;4.700;2023-12-22T13:41:34;6.63;;;1.30;;
12554;SDS011;6343;50.868;4.700;2023-12-22T13:44:04;3.23;;;0.97;;
12554;SDS011;6343;50.868;4.700;2023-12-22T13:46:30;2.83;;;1.10;;
12554;SDS011;6343;50.868;4.700;2023-12-22T13:48:57;6.03;;;1.23;;
12554;SDS011;6343;50.868;4.700;2023-12-22T13:51:23;7.77;;;1.17;;
12554;SDS011;6343;50.868;4.700;2023-12-22T13:53:50;5.57;;;1.53;;
12554;SDS011;6343;50.868;4.700;2023-12-22T13:56:16;3.10;;;1.20;;
12554;SDS011;6343;50.868;4.700;2023-12-22T13:58:45;5.83;;;1.30;;
12554;SDS011;6343;50.868;4.700;2023-12-22T14:01:12;2.00;;;1.20;;
12554;SDS011;6343;50.868;4.700;2023-12-22T14:03:39;5.90;;;1.47;;
12554;SDS011;6343;50.868;4.700;2023-12-22T14:06:06;5.40;;;1.30;;
12554;SDS011;6343;50.868;4.700;2023-12-22T14:08:34;4.67;;;1.07;;
12554;SDS011;6343;50.868;4.700;2023-12-22T14:11:00;3.57;;;0.90;;
12554;SDS011;6343;50.868;4.700;2023-12-22T14:13:27;2.97;;;1.00;;
12554;SDS011;6343;50.868;4.700;2023-12-22T14:15:53;3.97;;;0.80;;
12554;SDS011;6343;50.868;4.700;2023-12-22T14:18:19;6.10;;;1.17;;
12554;SDS011;6343;50.868;4.700;2023-12-22T14:20:45;4.33;;;1.27;;
12554;SDS011;6343;50.868;4.700;2023-12-22T14:23:11;4.60;;;1.10;;
12554;SDS011;6343;50.868;4.700;2023-12-22T14:25:41;3.87;;;0.80;;
12554;SDS011;6343;50.868;4.700;2023-12-22T14:28:08;2.17;;;1.00;;
12554;SDS011;6343;50.868;4.700;2023-12-22T14:30:34;3.63;;;1.10;;
12554;SDS011;6343;50.868;4.700;2023-12-22T14:33:00;3.13;;;0.80;;
12554;SDS011;6343;50.868;4.700;2023-12-22T14:35:26;2.87;;;1.10;;
12554;SDS011;6343;50.868;4.700;2023-12-22T14:37:52;2.90;;;1.23;;
12554;SDS011;6343;50.868;4.700;2023-12-22T14:40:19;4.63;;;1.00;;
12554;SDS011;6343;50.868;4.700;2023-12-22T14:42:45;2.70;;;0.97;;
12554;SDS011;6343;50.868;4.700;2023-12-22T14:45:12;6.93;;;1.30;;
12554;SDS011;6343;50.868;4.700;2023-12-22T14:47:38;7.67;;;1.30;;
12554;SDS011;6343;50.868;4.700;2023-12-22T14:50:04;4.30;;;1.00;;
12554;SDS011;6343;50.868;4.700;2023-12-22T14:52:30;2.23;;;0.80;;
12554;SDS011;6343;50.868;4.700;2023-12-22T14:55:01;5.73;;;1.10;;
12554;SDS011;6343;50.868;4.700;2023-12-22T14:57:29;7.37;;;1.13;;
12554;SDS011;6343;50.868;4.700;2023-12-22T14:59:55;3.60;;;1.27;;
12554;SDS011;6343;50.868;4.700;2023-12-22T15:02:22;7.83;;;1.30;;
12554;SDS011;6343;50.868;4.700;2023-12-22T15:04:48;4.93;;;1.33;;